THY6UZ LTFM-EGKK
Flight info
| Callsign | THY6UZ |
|---|---|
| Flight time | N/A |
| Altitude | 36000 |
| Route | VADEN1E/36 VADEN N618 GOL Y520 LUKOV Q8 DOLAP DCT VEBAR DCT BOSNA DCT RIFEN DCT SAFFA DCT ELMUR L613 RIPUS DCT DITON DCT HOC DCT LUL DCT RLP DCT ROTSI DCT KOTUN DCT NINAL DCT KESAX DCT KUNAV |
| Aircraft | B738/M-SDE2E3FGHIRWXY/LB1 |
Departure
| Time | 2026-05-06 14:48 |
|---|---|
| Airport | İstanbul Airport (LTFM) |
Arrival
| Time | N/A |
|---|---|
| Airport | London Gatwick Airport (EGKK) |
| Time | Latitude | Longitude | Altitude | Speed | Heading |
|---|---|---|---|---|---|
| 2026-05-06 14:18 | 41.26602 | 28.74994 | 333 ft | 0 kts | 290° |
| 2026-05-06 14:39 | 41.26596 | 28.75015 | 329 ft | 9 kts | 290° |
| 2026-05-06 14:39 | 41.26588 | 28.75045 | 329 ft | 0 kts | 303° |
| 2026-05-06 14:39 | 41.26583 | 28.75066 | 329 ft | 8 kts | 266° |
| 2026-05-06 14:40 | 41.26595 | 28.75128 | 329 ft | 3 kts | 221° |
| 2026-05-06 14:40 | 41.26599 | 28.75134 | 328 ft | 0 kts | 199° |
| 2026-05-06 14:43 | 41.26575 | 28.75121 | 331 ft | 7 kts | 198° |
| 2026-05-06 14:43 | 41.26512 | 28.75095 | 333 ft | 12 kts | 198° |
| 2026-05-06 14:43 | 41.26421 | 28.75066 | 333 ft | 14 kts | 205° |
| 2026-05-06 14:43 | 41.26339 | 28.75023 | 331 ft | 15 kts | 204° |
| 2026-05-06 14:44 | 41.26306 | 28.75004 | 331 ft | 0 kts | 188° |
| 2026-05-06 14:44 | 41.26305 | 28.75004 | 331 ft | 1 kts | 188° |
| 2026-05-06 14:44 | 41.26281 | 28.74997 | 330 ft | 6 kts | 191° |
| 2026-05-06 14:45 | 41.26244 | 28.75136 | 333 ft | 16 kts | 88° |
| 2026-05-06 14:45 | 41.26247 | 28.75320 | 333 ft | 23 kts | 86° |
| 2026-05-06 14:45 | 41.26248 | 28.75512 | 333 ft | 2 kts | 89° |
| 2026-05-06 14:46 | 41.26249 | 28.75561 | 333 ft | 10 kts | 89° |
| 2026-05-06 14:46 | 41.26254 | 28.75657 | 329 ft | 1 kts | 56° |
| 2026-05-06 14:47 | 41.26293 | 28.75668 | 333 ft | 12 kts | 358° |
| 2026-05-06 14:47 | 41.26560 | 28.75661 | 332 ft | 78 kts | 359° |
| 2026-05-06 14:47 | 41.27354 | 28.75642 | 332 ft | 150 kts | 354° |
| 2026-05-06 14:47 | 41.28540 | 28.75550 | 757 ft | 182 kts | 359° |
| 2026-05-06 14:48 | 41.29902 | 28.75470 | 1401 ft | 208 kts | 2° |
| 2026-05-06 14:48 | 41.31283 | 28.76101 | 2197 ft | 216 kts | 43° |
| 2026-05-06 14:48 | 41.32359 | 28.77605 | 2857 ft | 234 kts | 37° |
| 2026-05-06 14:48 | 41.33716 | 28.78835 | 3509 ft | 237 kts | 30° |
| 2026-05-06 14:49 | 41.35172 | 28.80040 | 3872 ft | 257 kts | 28° |
| 2026-05-06 14:49 | 41.36733 | 28.81266 | 4595 ft | 262 kts | 27° |
| 2026-05-06 14:49 | 41.38375 | 28.82317 | 5364 ft | 262 kts | 9° |
| 2026-05-06 14:49 | 41.40173 | 28.82287 | 6170 ft | 258 kts | 343° |
| 2026-05-06 14:50 | 41.41719 | 28.81170 | 6907 ft | 260 kts | 318° |
| 2026-05-06 14:50 | 41.42821 | 28.79249 | 7648 ft | 264 kts | 299° |
| 2026-05-06 14:50 | 41.43612 | 28.77018 | 8353 ft | 269 kts | 296° |
| 2026-05-06 14:50 | 41.44360 | 28.74715 | 9105 ft | 272 kts | 296° |
| 2026-05-06 14:51 | 41.45105 | 28.72384 | 9831 ft | 275 kts | 296° |
| 2026-05-06 14:51 | 41.45862 | 28.70022 | 10426 ft | 282 kts | 296° |
| 2026-05-06 14:51 | 41.46671 | 28.67524 | 10597 ft | 305 kts | 296° |
| 2026-05-06 14:51 | 41.47546 | 28.64835 | 10766 ft | 326 kts | 296° |
| 2026-05-06 14:52 | 41.48482 | 28.61966 | 10969 ft | 345 kts | 296° |
| 2026-05-06 14:52 | 41.49450 | 28.58995 | 11469 ft | 352 kts | 296° |
| 2026-05-06 14:52 | 41.50432 | 28.55982 | 12118 ft | 355 kts | 296° |
| 2026-05-06 14:52 | 41.51423 | 28.52940 | 12778 ft | 359 kts | 296° |
| 2026-05-06 14:53 | 41.52425 | 28.49871 | 13357 ft | 364 kts | 296° |
| 2026-05-06 14:53 | 41.53444 | 28.46746 | 13948 ft | 369 kts | 296° |
| 2026-05-06 14:53 | 41.54430 | 28.43722 | 14504 ft | 371 kts | 296° |
| 2026-05-06 14:53 | 41.55477 | 28.40506 | 15112 ft | 374 kts | 296° |
| 2026-05-06 14:54 | 41.56502 | 28.37355 | 15676 ft | 377 kts | 296° |
| 2026-05-06 14:54 | 41.57552 | 28.34124 | 16231 ft | 380 kts | 296° |
| 2026-05-06 14:54 | 41.58597 | 28.30902 | 17019 ft | 374 kts | 296° |
| 2026-05-06 14:54 | 41.59645 | 28.27674 | 17346 ft | 384 kts | 296° |
| 2026-05-06 14:55 | 41.60716 | 28.24369 | 17793 ft | 390 kts | 296° |
| 2026-05-06 14:55 | 41.61799 | 28.21024 | 18352 ft | 392 kts | 296° |
| 2026-05-06 14:55 | 41.62884 | 28.17662 | 18846 ft | 394 kts | 296° |
| 2026-05-06 14:55 | 41.63603 | 28.15433 | 19184 ft | 395 kts | 296° |
| 2026-05-06 14:56 | 41.64690 | 28.12063 | 19682 ft | 397 kts | 296° |
| 2026-05-06 14:56 | 41.65786 | 28.08660 | 20150 ft | 399 kts | 296° |
| 2026-05-06 14:56 | 41.67231 | 28.04188 | 20780 ft | 401 kts | 297° |
| 2026-05-06 14:56 | 41.68082 | 28.01941 | 21092 ft | 400 kts | 303° |
| 2026-05-06 14:57 | 41.70065 | 27.97778 | 21704 ft | 401 kts | 306° |
| 2026-05-06 14:57 | 41.71089 | 27.95694 | 21995 ft | 403 kts | 306° |
| 2026-05-06 14:57 | 41.72630 | 27.92563 | 22447 ft | 404 kts | 306° |
| 2026-05-06 14:57 | 41.74180 | 27.89401 | 22871 ft | 406 kts | 306° |
| 2026-05-06 14:58 | 41.75730 | 27.86219 | 23300 ft | 408 kts | 306° |
| 2026-05-06 14:58 | 41.77278 | 27.83026 | 23696 ft | 410 kts | 305° |
| 2026-05-06 14:58 | 41.78830 | 27.79809 | 24047 ft | 412 kts | 305° |
| 2026-05-06 14:58 | 41.80394 | 27.76560 | 24400 ft | 414 kts | 305° |
| 2026-05-06 14:59 | 41.81963 | 27.73293 | 24748 ft | 415 kts | 305° |
| 2026-05-06 14:59 | 41.83530 | 27.70025 | 25081 ft | 417 kts | 305° |
| 2026-05-06 14:59 | 41.85104 | 27.66741 | 25396 ft | 418 kts | 306° |
| 2026-05-06 14:59 | 41.86656 | 27.63498 | 25725 ft | 420 kts | 306° |
| 2026-05-06 15:00 | 41.88237 | 27.60191 | 26015 ft | 422 kts | 305° |
| 2026-05-06 15:00 | 41.89821 | 27.56876 | 26331 ft | 423 kts | 306° |
| 2026-05-06 15:00 | 41.91413 | 27.53540 | 26621 ft | 425 kts | 306° |
| 2026-05-06 15:00 | 41.93016 | 27.50176 | 26928 ft | 427 kts | 305° |
| 2026-05-06 15:01 | 41.94617 | 27.46813 | 27203 ft | 428 kts | 305° |
| 2026-05-06 15:01 | 41.96223 | 27.43435 | 27476 ft | 430 kts | 305° |
| 2026-05-06 15:01 | 41.97836 | 27.40039 | 27744 ft | 431 kts | 305° |
| 2026-05-06 15:01 | 41.99452 | 27.36633 | 28063 ft | 432 kts | 305° |
| 2026-05-06 15:02 | 42.01063 | 27.33232 | 28460 ft | 430 kts | 305° |
| 2026-05-06 15:02 | 42.02665 | 27.29847 | 28897 ft | 428 kts | 305° |
| 2026-05-06 15:02 | 42.04259 | 27.26477 | 29318 ft | 427 kts | 305° |
| 2026-05-06 15:02 | 42.05852 | 27.23111 | 29650 ft | 426 kts | 306° |
| 2026-05-06 15:03 | 42.07606 | 27.19903 | 29997 ft | 423 kts | 313° |
| 2026-05-06 15:03 | 42.09566 | 27.16953 | 30341 ft | 421 kts | 314° |
| 2026-05-06 15:03 | 42.11530 | 27.14044 | 30652 ft | 420 kts | 314° |
| 2026-05-06 15:03 | 42.13497 | 27.11132 | 30932 ft | 420 kts | 314° |
| 2026-05-06 15:04 | 42.15437 | 27.08248 | 31204 ft | 420 kts | 314° |
| 2026-05-06 15:04 | 42.17390 | 27.05326 | 31508 ft | 418 kts | 314° |
| 2026-05-06 15:04 | 42.19338 | 27.02400 | 31818 ft | 417 kts | 314° |
| 2026-05-06 15:04 | 42.21272 | 26.99486 | 32096 ft | 416 kts | 314° |
| 2026-05-06 15:05 | 42.23203 | 26.96569 | 32371 ft | 416 kts | 314° |
| 2026-05-06 15:05 | 42.25101 | 26.93699 | 32660 ft | 415 kts | 314° |
| 2026-05-06 15:05 | 42.27022 | 26.90792 | 32970 ft | 413 kts | 314° |
| 2026-05-06 15:05 | 42.28932 | 26.87896 | 33246 ft | 412 kts | 314° |
| 2026-05-06 15:06 | 42.30830 | 26.85017 | 33543 ft | 410 kts | 314° |
| 2026-05-06 15:06 | 42.32733 | 26.82129 | 33826 ft | 409 kts | 314° |
| 2026-05-06 15:06 | 42.34626 | 26.79253 | 34044 ft | 409 kts | 314° |
| 2026-05-06 15:07 | 42.38395 | 26.73519 | 34022 ft | 410 kts | 314° |
| 2026-05-06 15:07 | 42.42161 | 26.67776 | 34028 ft | 405 kts | 314° |
| 2026-05-06 15:08 | 42.45885 | 26.62086 | 34021 ft | 402 kts | 314° |
| 2026-05-06 15:08 | 42.49582 | 26.56429 | 34023 ft | 400 kts | 314° |
| 2026-05-06 15:09 | 42.53168 | 26.50662 | 34019 ft | 401 kts | 307° |
| 2026-05-06 15:09 | 42.55712 | 26.43902 | 34023 ft | 408 kts | 294° |
| 2026-05-06 15:10 | 42.57540 | 26.36647 | 34015 ft | 409 kts | 293° |
| 2026-05-06 15:10 | 42.59362 | 26.29303 | 34016 ft | 410 kts | 293° |
| 2026-05-06 15:11 | 42.61202 | 26.21949 | 34008 ft | 412 kts | 293° |
| 2026-05-06 15:11 | 42.63052 | 26.14585 | 34006 ft | 413 kts | 293° |
| 2026-05-06 15:12 | 42.64910 | 26.07184 | 34008 ft | 414 kts | 293° |
| 2026-05-06 15:12 | 42.66756 | 25.99814 | 33994 ft | 415 kts | 293° |
| 2026-05-06 15:13 | 42.68612 | 25.92375 | 34005 ft | 415 kts | 293° |
| 2026-05-06 15:13 | 42.70460 | 25.84940 | 33985 ft | 415 kts | 293° |
| 2026-05-06 15:14 | 42.72298 | 25.77523 | 34002 ft | 412 kts | 292° |
| 2026-05-06 15:14 | 42.74129 | 25.70116 | 33997 ft | 412 kts | 292° |
| 2026-05-06 15:15 | 42.75941 | 25.62764 | 33999 ft | 412 kts | 292° |
| 2026-05-06 15:15 | 42.77760 | 25.55357 | 33994 ft | 413 kts | 292° |
| 2026-05-06 15:16 | 42.79577 | 25.47933 | 33998 ft | 414 kts | 292° |
| 2026-05-06 15:16 | 42.81393 | 25.40492 | 33999 ft | 414 kts | 292° |
| 2026-05-06 15:17 | 42.83206 | 25.33036 | 33998 ft | 415 kts | 292° |
| 2026-05-06 15:17 | 42.85016 | 25.25568 | 33983 ft | 415 kts | 291° |
| 2026-05-06 15:18 | 42.86822 | 25.18093 | 33997 ft | 415 kts | 291° |
| 2026-05-06 15:18 | 42.88622 | 25.10617 | 33995 ft | 415 kts | 291° |
| 2026-05-06 15:19 | 42.90412 | 25.03161 | 33989 ft | 416 kts | 291° |
| 2026-05-06 15:19 | 42.92205 | 24.95668 | 33992 ft | 416 kts | 291° |
| 2026-05-06 15:20 | 42.93994 | 24.88162 | 33984 ft | 415 kts | 291° |
| 2026-05-06 15:20 | 42.95778 | 24.80655 | 33981 ft | 415 kts | 291° |
| 2026-05-06 15:21 | 42.97552 | 24.73166 | 33985 ft | 414 kts | 290° |
| 2026-05-06 15:21 | 42.99320 | 24.65675 | 33984 ft | 414 kts | 290° |
| 2026-05-06 15:22 | 43.01080 | 24.58194 | 33987 ft | 413 kts | 290° |
| 2026-05-06 15:22 | 43.02826 | 24.50752 | 33987 ft | 413 kts | 290° |
| 2026-05-06 15:23 | 43.04574 | 24.43273 | 33973 ft | 414 kts | 290° |
| 2026-05-06 15:23 | 43.06321 | 24.35773 | 33979 ft | 413 kts | 290° |
| 2026-05-06 15:24 | 43.08064 | 24.28267 | 33976 ft | 414 kts | 290° |
| 2026-05-06 15:24 | 43.10032 | 24.20895 | 33976 ft | 412 kts | 298° |
| 2026-05-06 15:25 | 43.13033 | 24.14236 | 33972 ft | 411 kts | 303° |
| 2026-05-06 15:25 | 43.16121 | 24.07629 | 33971 ft | 412 kts | 303° |
| 2026-05-06 15:26 | 43.19181 | 24.00989 | 33949 ft | 413 kts | 303° |
| 2026-05-06 15:26 | 43.22231 | 23.94314 | 33963 ft | 413 kts | 303° |
| 2026-05-06 15:27 | 43.25279 | 23.87632 | 33967 ft | 414 kts | 302° |
| 2026-05-06 15:27 | 43.27969 | 23.80653 | 33960 ft | 416 kts | 291° |
| 2026-05-06 15:28 | 43.29254 | 23.72901 | 33965 ft | 419 kts | 279° |
| 2026-05-06 15:28 | 43.29917 | 23.64980 | 33961 ft | 420 kts | 278° |
| 2026-05-06 15:29 | 43.30588 | 23.57009 | 33957 ft | 420 kts | 279° |
| 2026-05-06 15:29 | 43.31284 | 23.49041 | 33960 ft | 421 kts | 279° |
| 2026-05-06 15:30 | 43.31985 | 23.41054 | 33964 ft | 420 kts | 279° |
| 2026-05-06 15:30 | 43.32679 | 23.33077 | 33962 ft | 420 kts | 278° |
| 2026-05-06 15:31 | 43.33365 | 23.25114 | 33958 ft | 419 kts | 278° |
| 2026-05-06 15:31 | 43.34043 | 23.17206 | 33967 ft | 419 kts | 278° |
| 2026-05-06 15:32 | 43.35053 | 23.05299 | 33966 ft | 418 kts | 278° |
| 2026-05-06 15:32 | 43.35721 | 22.97338 | 33961 ft | 418 kts | 278° |
| 2026-05-06 15:33 | 43.36382 | 22.89401 | 33965 ft | 418 kts | 278° |
| 2026-05-06 15:33 | 43.37034 | 22.81511 | 33968 ft | 418 kts | 278° |
| 2026-05-06 15:34 | 43.38057 | 22.73690 | 33967 ft | 415 kts | 288° |
| 2026-05-06 15:34 | 43.39825 | 22.66121 | 33969 ft | 415 kts | 288° |
| 2026-05-06 15:35 | 43.41600 | 22.58558 | 33954 ft | 416 kts | 288° |
| 2026-05-06 15:35 | 43.43355 | 22.50964 | 33962 ft | 416 kts | 288° |
| 2026-05-06 15:36 | 43.45085 | 22.43391 | 33961 ft | 417 kts | 287° |
| 2026-05-06 15:36 | 43.46819 | 22.35754 | 33958 ft | 418 kts | 287° |
| 2026-05-06 15:37 | 43.48549 | 22.28112 | 33949 ft | 419 kts | 287° |
| 2026-05-06 15:37 | 43.50282 | 22.20423 | 33951 ft | 419 kts | 287° |
| 2026-05-06 15:38 | 43.52009 | 22.12740 | 33939 ft | 420 kts | 287° |
| 2026-05-06 15:38 | 43.53721 | 22.05092 | 33952 ft | 420 kts | 287° |
| 2026-05-06 15:39 | 43.55438 | 21.97397 | 33940 ft | 420 kts | 287° |
| 2026-05-06 15:39 | 43.57150 | 21.89696 | 33947 ft | 419 kts | 287° |
| 2026-05-06 15:40 | 43.58856 | 21.81996 | 33946 ft | 419 kts | 287° |
| 2026-05-06 15:40 | 43.60553 | 21.74310 | 33939 ft | 419 kts | 287° |
| 2026-05-06 15:41 | 43.62236 | 21.66658 | 33934 ft | 419 kts | 287° |
| 2026-05-06 15:41 | 43.63925 | 21.58950 | 33933 ft | 418 kts | 286° |
| 2026-05-06 15:42 | 43.65605 | 21.51256 | 33927 ft | 418 kts | 286° |
| 2026-05-06 15:42 | 43.67278 | 21.43568 | 33920 ft | 418 kts | 286° |
| 2026-05-06 15:43 | 43.68667 | 21.37162 | 33918 ft | 418 kts | 286° |
| 2026-05-06 15:43 | 43.70598 | 21.28226 | 33925 ft | 417 kts | 286° |
| 2026-05-06 15:44 | 43.72255 | 21.20526 | 33922 ft | 418 kts | 286° |
| 2026-05-06 15:44 | 43.73630 | 21.14112 | 33920 ft | 418 kts | 286° |
| 2026-05-06 15:45 | 43.75284 | 21.06378 | 33921 ft | 419 kts | 286° |
| 2026-05-06 15:45 | 43.76935 | 20.98625 | 33926 ft | 419 kts | 285° |
| 2026-05-06 15:46 | 43.78570 | 20.90919 | 33945 ft | 420 kts | 285° |
| 2026-05-06 15:46 | 43.80216 | 20.83130 | 33938 ft | 421 kts | 285° |
| 2026-05-06 15:47 | 43.81855 | 20.75345 | 33936 ft | 422 kts | 285° |
| 2026-05-06 15:47 | 43.83492 | 20.67543 | 33943 ft | 422 kts | 285° |
| 2026-05-06 15:48 | 43.85129 | 20.59709 | 33937 ft | 423 kts | 285° |
| 2026-05-06 15:48 | 43.86762 | 20.51867 | 33941 ft | 423 kts | 285° |
| 2026-05-06 15:49 | 43.88377 | 20.44081 | 33940 ft | 423 kts | 285° |
| 2026-05-06 15:49 | 43.90002 | 20.36217 | 33938 ft | 424 kts | 285° |
| 2026-05-06 15:50 | 43.91619 | 20.28357 | 33936 ft | 424 kts | 285° |
| 2026-05-06 15:50 | 43.93234 | 20.20479 | 33932 ft | 424 kts | 285° |
| 2026-05-06 15:51 | 43.94844 | 20.12597 | 33936 ft | 424 kts | 285° |
| 2026-05-06 15:51 | 43.96446 | 20.04721 | 33934 ft | 424 kts | 284° |
| 2026-05-06 15:52 | 43.98045 | 19.96828 | 33934 ft | 425 kts | 284° |
| 2026-05-06 15:52 | 43.99632 | 19.88967 | 33935 ft | 425 kts | 284° |
| 2026-05-06 15:53 | 44.01221 | 19.81061 | 33934 ft | 425 kts | 284° |
| 2026-05-06 15:53 | 44.02804 | 19.73154 | 33945 ft | 425 kts | 284° |
| 2026-05-06 15:54 | 44.04385 | 19.65226 | 33943 ft | 425 kts | 284° |
| 2026-05-06 15:54 | 44.05955 | 19.57319 | 33943 ft | 425 kts | 284° |
| 2026-05-06 15:55 | 44.07510 | 19.49461 | 33932 ft | 424 kts | 284° |
| 2026-05-06 15:55 | 44.09071 | 19.41541 | 33941 ft | 423 kts | 284° |
| 2026-05-06 15:56 | 44.10622 | 19.33637 | 33939 ft | 423 kts | 283° |
| 2026-05-06 15:56 | 44.12167 | 19.25738 | 33926 ft | 422 kts | 283° |
| 2026-05-06 15:57 | 44.13702 | 19.17851 | 33937 ft | 422 kts | 283° |
| 2026-05-06 15:57 | 44.15105 | 19.09927 | 33948 ft | 421 kts | 281° |
| 2026-05-06 15:58 | 44.16429 | 19.01992 | 33944 ft | 420 kts | 281° |
| 2026-05-06 15:58 | 44.17744 | 18.94131 | 33932 ft | 418 kts | 281° |
| 2026-05-06 15:59 | 44.19068 | 18.86255 | 33925 ft | 417 kts | 281° |
| 2026-05-06 15:59 | 44.20392 | 18.78375 | 33911 ft | 416 kts | 281° |
| 2026-05-06 16:00 | 44.21704 | 18.70530 | 33922 ft | 416 kts | 281° |
| 2026-05-06 16:00 | 44.23014 | 18.62667 | 33923 ft | 417 kts | 281° |
| 2026-05-06 16:01 | 44.24320 | 18.54778 | 33920 ft | 418 kts | 281° |
| 2026-05-06 16:01 | 44.25624 | 18.46872 | 33919 ft | 419 kts | 281° |
| 2026-05-06 16:02 | 44.26927 | 18.38949 | 33921 ft | 419 kts | 280° |
| 2026-05-06 16:02 | 44.28224 | 18.31016 | 33932 ft | 419 kts | 280° |
| 2026-05-06 16:03 | 44.29514 | 18.23081 | 33939 ft | 419 kts | 280° |
| 2026-05-06 16:03 | 44.30792 | 18.15197 | 33941 ft | 419 kts | 280° |
| 2026-05-06 16:04 | 44.32073 | 18.07257 | 33935 ft | 418 kts | 280° |
| 2026-05-06 16:04 | 44.33344 | 17.99331 | 33937 ft | 418 kts | 279° |
| 2026-05-06 16:05 | 44.34608 | 17.91412 | 33938 ft | 417 kts | 279° |
| 2026-05-06 16:05 | 44.35864 | 17.83513 | 33937 ft | 416 kts | 279° |
| 2026-05-06 16:06 | 44.37276 | 17.75710 | 33946 ft | 418 kts | 287° |
| 2026-05-06 16:06 | 44.39860 | 17.68362 | 33940 ft | 422 kts | 294° |
| 2026-05-06 16:07 | 44.42669 | 17.61138 | 33936 ft | 422 kts | 295° |
| 2026-05-06 16:07 | 44.45463 | 17.53891 | 33940 ft | 422 kts | 294° |
| 2026-05-06 16:08 | 44.48229 | 17.46636 | 33950 ft | 422 kts | 294° |
| 2026-05-06 16:08 | 44.50965 | 17.39409 | 33932 ft | 423 kts | 294° |
| 2026-05-06 16:09 | 44.53724 | 17.32096 | 33942 ft | 423 kts | 294° |
| 2026-05-06 16:09 | 44.56476 | 17.24782 | 33929 ft | 423 kts | 294° |
| 2026-05-06 16:10 | 44.59225 | 17.17460 | 33926 ft | 424 kts | 294° |
| 2026-05-06 16:10 | 44.61948 | 17.10185 | 33939 ft | 424 kts | 294° |
| 2026-05-06 16:11 | 44.64695 | 17.02827 | 33941 ft | 424 kts | 294° |
| 2026-05-06 16:11 | 44.67434 | 16.95474 | 33936 ft | 424 kts | 294° |
| 2026-05-06 16:12 | 44.70148 | 16.88168 | 33939 ft | 424 kts | 294° |
| 2026-05-06 16:12 | 44.72878 | 16.80798 | 33931 ft | 424 kts | 294° |
| 2026-05-06 16:13 | 44.75604 | 16.73418 | 33938 ft | 424 kts | 294° |
| 2026-05-06 16:13 | 44.78318 | 16.66054 | 33932 ft | 423 kts | 294° |
| 2026-05-06 16:14 | 44.81007 | 16.58734 | 33938 ft | 423 kts | 294° |
| 2026-05-06 16:14 | 44.83706 | 16.51371 | 33940 ft | 422 kts | 294° |
| 2026-05-06 16:15 | 44.86396 | 16.44011 | 33939 ft | 422 kts | 293° |
| 2026-05-06 16:15 | 44.89075 | 16.36659 | 33930 ft | 421 kts | 293° |
| 2026-05-06 16:16 | 44.91741 | 16.29327 | 33930 ft | 419 kts | 293° |
| 2026-05-06 16:16 | 44.94393 | 16.22014 | 33941 ft | 418 kts | 293° |
| 2026-05-06 16:17 | 44.97018 | 16.14754 | 33937 ft | 417 kts | 293° |
| 2026-05-06 16:17 | 44.99651 | 16.07452 | 33937 ft | 416 kts | 293° |
| 2026-05-06 16:18 | 45.02273 | 16.00161 | 33938 ft | 416 kts | 293° |
| 2026-05-06 16:18 | 45.04891 | 15.92863 | 33934 ft | 415 kts | 293° |
| 2026-05-06 16:19 | 45.07493 | 15.85588 | 33932 ft | 414 kts | 293° |
| 2026-05-06 16:19 | 45.10094 | 15.78298 | 33937 ft | 414 kts | 293° |
| 2026-05-06 16:20 | 45.12687 | 15.71008 | 33943 ft | 415 kts | 293° |
| 2026-05-06 16:20 | 45.15267 | 15.63736 | 33922 ft | 416 kts | 293° |
| 2026-05-06 16:21 | 45.17859 | 15.56411 | 33927 ft | 417 kts | 293° |
| 2026-05-06 16:21 | 45.20462 | 15.49034 | 33924 ft | 418 kts | 293° |
| 2026-05-06 16:22 | 45.23067 | 15.41634 | 33919 ft | 420 kts | 292° |
| 2026-05-06 16:22 | 45.25675 | 15.34203 | 33930 ft | 420 kts | 292° |
| 2026-05-06 16:23 | 45.28281 | 15.26759 | 33922 ft | 421 kts | 292° |
| 2026-05-06 16:23 | 45.30877 | 15.19323 | 33936 ft | 420 kts | 292° |
| 2026-05-06 16:24 | 45.33451 | 15.11928 | 33933 ft | 421 kts | 292° |
| 2026-05-06 16:24 | 45.36042 | 15.04462 | 33942 ft | 421 kts | 292° |
| 2026-05-06 16:25 | 45.38621 | 14.97013 | 33940 ft | 420 kts | 292° |
| 2026-05-06 16:25 | 45.41200 | 14.89541 | 33952 ft | 420 kts | 292° |
| 2026-05-06 16:26 | 45.43770 | 14.82076 | 33950 ft | 419 kts | 292° |
| 2026-05-06 16:26 | 45.46334 | 14.74606 | 33957 ft | 419 kts | 292° |
| 2026-05-06 16:27 | 45.48891 | 14.67135 | 33949 ft | 419 kts | 292° |
| 2026-05-06 16:27 | 45.51440 | 14.59665 | 33955 ft | 419 kts | 292° |
| 2026-05-06 16:28 | 45.53986 | 14.52187 | 33959 ft | 419 kts | 292° |
| 2026-05-06 16:28 | 45.56095 | 14.45972 | 33957 ft | 420 kts | 292° |
| 2026-05-06 16:29 | 45.58638 | 14.38462 | 33960 ft | 421 kts | 292° |
| 2026-05-06 16:29 | 45.61184 | 14.30921 | 33969 ft | 422 kts | 291° |
| 2026-05-06 16:30 | 45.63302 | 14.24629 | 33950 ft | 423 kts | 291° |
| 2026-05-06 16:30 | 45.66285 | 14.15748 | 33952 ft | 424 kts | 291° |
| 2026-05-06 16:31 | 45.68830 | 14.08144 | 33942 ft | 424 kts | 291° |
| 2026-05-06 16:31 | 45.71366 | 14.00549 | 33948 ft | 423 kts | 291° |
| 2026-05-06 16:32 | 45.73899 | 13.92936 | 33930 ft | 423 kts | 291° |
| 2026-05-06 16:32 | 45.76418 | 13.85346 | 33918 ft | 422 kts | 291° |
| 2026-05-06 16:33 | 45.78917 | 13.77792 | 33906 ft | 422 kts | 291° |
| 2026-05-06 16:34 | 45.82684 | 13.66365 | 33897 ft | 422 kts | 291° |
| 2026-05-06 16:34 | 45.85193 | 13.58728 | 33885 ft | 422 kts | 290° |
| 2026-05-06 16:35 | 45.87576 | 13.51088 | 33885 ft | 421 kts | 289° |
| 2026-05-06 16:35 | 45.89901 | 13.43385 | 33887 ft | 421 kts | 289° |
| 2026-05-06 16:36 | 45.92225 | 13.35676 | 33888 ft | 421 kts | 289° |
| 2026-05-06 16:36 | 45.94558 | 13.27959 | 33895 ft | 421 kts | 289° |
| 2026-05-06 16:37 | 45.96880 | 13.20269 | 33886 ft | 420 kts | 289° |
| 2026-05-06 16:37 | 45.99207 | 13.12544 | 33886 ft | 420 kts | 289° |
| 2026-05-06 16:38 | 46.01529 | 13.04813 | 33887 ft | 420 kts | 289° |
| 2026-05-06 16:38 | 46.03842 | 12.97089 | 33887 ft | 420 kts | 288° |
| 2026-05-06 16:39 | 46.06154 | 12.89342 | 33897 ft | 421 kts | 288° |
| 2026-05-06 16:39 | 46.08468 | 12.81563 | 33907 ft | 422 kts | 288° |
| 2026-05-06 16:40 | 46.10760 | 12.73837 | 33912 ft | 422 kts | 288° |
| 2026-05-06 16:40 | 46.13066 | 12.66037 | 33913 ft | 423 kts | 288° |
| 2026-05-06 16:41 | 46.15365 | 12.58239 | 33910 ft | 423 kts | 288° |
| 2026-05-06 16:41 | 46.17665 | 12.50412 | 33905 ft | 423 kts | 288° |
| 2026-05-06 16:42 | 46.19952 | 12.42605 | 33917 ft | 422 kts | 288° |
| 2026-05-06 16:42 | 46.22238 | 12.34776 | 33896 ft | 423 kts | 288° |
| 2026-05-06 16:43 | 46.24469 | 12.27104 | 33883 ft | 424 kts | 288° |
| 2026-05-06 16:43 | 46.26736 | 12.19295 | 33885 ft | 423 kts | 288° |
| 2026-05-06 16:44 | 46.29004 | 12.11451 | 33887 ft | 422 kts | 288° |
| 2026-05-06 16:44 | 46.30138 | 12.07522 | 34026 ft | 425 kts | 285° |
| 2026-05-06 16:44 | 46.31280 | 12.03573 | 34303 ft | 423 kts | 285° |
| 2026-05-06 16:44 | 46.32409 | 11.99647 | 34528 ft | 424 kts | 284° |
| 2026-05-06 16:45 | 46.33541 | 11.95696 | 34624 ft | 425 kts | 285° |
| 2026-05-06 16:45 | 46.34659 | 11.91790 | 34788 ft | 425 kts | 285° |
| 2026-05-06 16:45 | 46.35787 | 11.87850 | 35038 ft | 424 kts | 285° |
| 2026-05-06 16:45 | 46.36914 | 11.83911 | 35260 ft | 423 kts | 285° |
| 2026-05-06 16:46 | 46.38041 | 11.79962 | 35432 ft | 424 kts | 285° |
| 2026-05-06 16:46 | 46.39165 | 11.76013 | 35594 ft | 425 kts | 285° |
| 2026-05-06 16:46 | 46.40292 | 11.72051 | 35758 ft | 424 kts | 285° |
| 2026-05-06 16:47 | 46.42528 | 11.64174 | 35849 ft | 422 kts | 285° |
| 2026-05-06 16:47 | 46.44761 | 11.56265 | 35862 ft | 427 kts | 285° |
| 2026-05-06 16:48 | 46.47010 | 11.48286 | 35874 ft | 429 kts | 285° |
| 2026-05-06 16:48 | 46.49279 | 11.40203 | 35860 ft | 434 kts | 285° |
| 2026-05-06 16:49 | 46.51522 | 11.32220 | 35840 ft | 421 kts | 285° |
| 2026-05-06 16:49 | 46.53723 | 11.24337 | 35847 ft | 420 kts | 285° |
| 2026-05-06 16:50 | 46.55895 | 11.16518 | 35874 ft | 418 kts | 285° |
| 2026-05-06 16:50 | 46.58062 | 11.08702 | 35865 ft | 417 kts | 285° |
| 2026-05-06 16:51 | 46.60242 | 11.00798 | 35870 ft | 424 kts | 285° |
| 2026-05-06 16:51 | 46.62450 | 10.92770 | 35873 ft | 430 kts | 285° |
| 2026-05-06 16:52 | 46.64680 | 10.84645 | 35889 ft | 432 kts | 285° |
| 2026-05-06 16:52 | 46.66889 | 10.76592 | 35871 ft | 425 kts | 285° |
| 2026-05-06 16:53 | 46.69066 | 10.68618 | 35848 ft | 422 kts | 285° |
| 2026-05-06 16:53 | 46.71211 | 10.60717 | 35875 ft | 422 kts | 285° |
| 2026-05-06 16:54 | 46.73366 | 10.52752 | 35866 ft | 423 kts | 285° |
| 2026-05-06 16:54 | 46.75522 | 10.44763 | 35872 ft | 424 kts | 285° |
| 2026-05-06 16:55 | 46.77677 | 10.36752 | 35886 ft | 424 kts | 285° |
| 2026-05-06 16:55 | 46.79834 | 10.28693 | 35866 ft | 427 kts | 285° |
| 2026-05-06 16:56 | 46.81994 | 10.20612 | 35874 ft | 429 kts | 285° |
| 2026-05-06 16:56 | 46.84159 | 10.12486 | 35904 ft | 429 kts | 285° |
| 2026-05-06 16:57 | 46.86305 | 10.04401 | 35897 ft | 430 kts | 285° |
| 2026-05-06 16:57 | 46.88468 | 9.96217 | 35881 ft | 431 kts | 285° |
| 2026-05-06 16:58 | 46.90621 | 9.88052 | 35896 ft | 430 kts | 285° |
| 2026-05-06 16:58 | 46.92771 | 9.79862 | 35898 ft | 432 kts | 285° |
| 2026-05-06 16:59 | 46.94923 | 9.71636 | 35894 ft | 432 kts | 285° |
| 2026-05-06 16:59 | 46.97054 | 9.63461 | 35893 ft | 431 kts | 285° |
| 2026-05-06 17:00 | 46.99187 | 9.55254 | 35879 ft | 432 kts | 285° |
| 2026-05-06 17:00 | 47.01314 | 9.47035 | 35863 ft | 431 kts | 285° |
| 2026-05-06 17:01 | 47.03436 | 9.38810 | 35877 ft | 430 kts | 285° |
| 2026-05-06 17:01 | 47.05546 | 9.30603 | 35888 ft | 429 kts | 285° |
| 2026-05-06 17:02 | 47.07631 | 9.22458 | 35885 ft | 430 kts | 285° |
| 2026-05-06 17:02 | 47.09725 | 9.14252 | 35887 ft | 430 kts | 285° |
| 2026-05-06 17:03 | 47.11818 | 9.06021 | 35910 ft | 430 kts | 285° |
| 2026-05-06 17:03 | 47.13893 | 8.97831 | 35911 ft | 432 kts | 285° |
| 2026-05-06 17:04 | 47.15991 | 8.89530 | 35923 ft | 434 kts | 285° |
| 2026-05-06 17:04 | 47.18122 | 8.81205 | 35928 ft | 436 kts | 285° |
| 2026-05-06 17:05 | 47.20245 | 8.72906 | 35926 ft | 437 kts | 285° |
| 2026-05-06 17:05 | 47.22376 | 8.64496 | 35913 ft | 439 kts | 285° |
| 2026-05-06 17:06 | 47.24502 | 8.56069 | 35913 ft | 440 kts | 285° |
| 2026-05-06 17:06 | 47.26631 | 8.47610 | 35912 ft | 441 kts | 285° |
| 2026-05-06 17:07 | 47.28770 | 8.39122 | 35895 ft | 441 kts | 285° |
| 2026-05-06 17:07 | 47.30883 | 8.30700 | 35704 ft | 441 kts | 286° |
| 2026-05-06 17:08 | 47.32990 | 8.22241 | 35840 ft | 438 kts | 285° |
| 2026-05-06 17:08 | 47.35075 | 8.13829 | 35884 ft | 437 kts | 285° |
| 2026-05-06 17:09 | 47.37155 | 8.05407 | 35899 ft | 437 kts | 285° |
| 2026-05-06 17:09 | 47.39227 | 7.96988 | 35901 ft | 437 kts | 285° |
| 2026-05-06 17:10 | 47.41299 | 7.88537 | 35897 ft | 437 kts | 285° |
| 2026-05-06 17:10 | 47.42849 | 7.82195 | 35898 ft | 438 kts | 285° |
| 2026-05-06 17:11 | 47.44915 | 7.73718 | 35897 ft | 439 kts | 285° |
| 2026-05-06 17:11 | 47.46924 | 7.65218 | 35883 ft | 439 kts | 282° |
| 2026-05-06 17:12 | 47.48444 | 7.56486 | 35894 ft | 438 kts | 279° |
| 2026-05-06 17:12 | 47.49852 | 7.47705 | 35885 ft | 440 kts | 279° |
| 2026-05-06 17:13 | 47.51284 | 7.38885 | 35894 ft | 442 kts | 280° |
| 2026-05-06 17:13 | 47.52492 | 7.31535 | 35887 ft | 443 kts | 280° |
| 2026-05-06 17:14 | 47.53953 | 7.22670 | 35886 ft | 443 kts | 280° |
| 2026-05-06 17:14 | 47.55409 | 7.13790 | 35889 ft | 444 kts | 280° |
| 2026-05-06 17:15 | 47.57091 | 7.03465 | 35885 ft | 444 kts | 280° |
| 2026-05-06 17:15 | 47.58297 | 6.96023 | 35888 ft | 443 kts | 280° |
| 2026-05-06 17:16 | 47.59733 | 6.87121 | 35886 ft | 443 kts | 280° |
| 2026-05-06 17:16 | 47.61147 | 6.78298 | 35889 ft | 442 kts | 280° |
| 2026-05-06 17:17 | 47.62563 | 6.69421 | 35886 ft | 443 kts | 280° |
| 2026-05-06 17:17 | 47.63973 | 6.60534 | 35899 ft | 443 kts | 280° |
| 2026-05-06 17:18 | 47.65378 | 6.51630 | 35886 ft | 443 kts | 280° |
| 2026-05-06 17:18 | 47.66775 | 6.42731 | 35883 ft | 442 kts | 280° |
| 2026-05-06 17:19 | 47.68161 | 6.33858 | 35891 ft | 442 kts | 280° |
| 2026-05-06 17:19 | 47.69698 | 6.25017 | 35887 ft | 443 kts | 284° |
| 2026-05-06 17:20 | 47.71565 | 6.16349 | 35896 ft | 443 kts | 285° |
| 2026-05-06 17:20 | 47.73470 | 6.07631 | 35888 ft | 444 kts | 285° |
| 2026-05-06 17:21 | 47.75344 | 5.98857 | 35889 ft | 445 kts | 284° |
| 2026-05-06 17:21 | 47.77192 | 5.90070 | 35888 ft | 445 kts | 284° |
| 2026-05-06 17:22 | 47.79032 | 5.81270 | 35895 ft | 445 kts | 284° |
| 2026-05-06 17:22 | 47.80869 | 5.72445 | 35896 ft | 446 kts | 284° |
| 2026-05-06 17:23 | 47.82701 | 5.63609 | 35900 ft | 447 kts | 284° |
| 2026-05-06 17:23 | 47.84514 | 5.54830 | 35900 ft | 448 kts | 284° |
| 2026-05-06 17:24 | 47.86355 | 5.45873 | 35893 ft | 449 kts | 284° |
| 2026-05-06 17:24 | 47.88166 | 5.37030 | 35901 ft | 450 kts | 284° |
| 2026-05-06 17:25 | 47.90082 | 5.28137 | 35897 ft | 452 kts | 291° |
| 2026-05-06 17:25 | 47.93368 | 5.20136 | 35893 ft | 457 kts | 309° |
| 2026-05-06 17:26 | 47.97656 | 5.13124 | 35907 ft | 458 kts | 311° |
| 2026-05-06 17:26 | 48.02001 | 5.06131 | 35897 ft | 458 kts | 310° |
| 2026-05-06 17:27 | 48.06295 | 4.99089 | 35912 ft | 458 kts | 310° |
| 2026-05-06 17:27 | 48.10579 | 4.91982 | 35893 ft | 458 kts | 310° |
| 2026-05-06 17:28 | 48.14832 | 4.84899 | 35907 ft | 458 kts | 310° |
| 2026-05-06 17:28 | 48.19075 | 4.77820 | 35903 ft | 458 kts | 310° |
| 2026-05-06 17:29 | 48.23347 | 4.70673 | 35908 ft | 458 kts | 310° |
| 2026-05-06 17:29 | 48.27596 | 4.63551 | 35901 ft | 458 kts | 310° |
| 2026-05-06 17:30 | 48.31815 | 4.56454 | 35906 ft | 457 kts | 310° |
| 2026-05-06 17:30 | 48.36044 | 4.49324 | 35908 ft | 456 kts | 310° |
| 2026-05-06 17:31 | 48.40268 | 4.42180 | 35909 ft | 456 kts | 310° |
| 2026-05-06 17:31 | 48.44477 | 4.35041 | 35905 ft | 456 kts | 310° |
| 2026-05-06 17:32 | 48.48685 | 4.27886 | 35970 ft | 455 kts | 310° |
| 2026-05-06 17:32 | 48.52883 | 4.20729 | 35911 ft | 455 kts | 310° |
| 2026-05-06 17:33 | 48.57043 | 4.13616 | 35908 ft | 453 kts | 310° |
| 2026-05-06 17:33 | 48.61201 | 4.06488 | 35901 ft | 451 kts | 310° |
| 2026-05-06 17:34 | 48.65343 | 3.99367 | 35906 ft | 449 kts | 310° |
| 2026-05-06 17:34 | 48.69466 | 3.92262 | 35907 ft | 448 kts | 310° |
| 2026-05-06 17:35 | 48.73584 | 3.85277 | 35908 ft | 447 kts | 313° |
| 2026-05-06 17:35 | 48.78030 | 3.78598 | 35907 ft | 447 kts | 315° |
| 2026-05-06 17:36 | 48.84728 | 3.68805 | 35906 ft | 447 kts | 315° |
| 2026-05-06 17:36 | 48.89182 | 3.62188 | 35906 ft | 448 kts | 314° |
| 2026-05-06 17:37 | 48.93636 | 3.55516 | 35905 ft | 449 kts | 314° |
| 2026-05-06 17:37 | 48.98071 | 3.48846 | 35912 ft | 450 kts | 314° |
| 2026-05-06 17:38 | 49.02523 | 3.42135 | 35909 ft | 451 kts | 314° |
| 2026-05-06 17:38 | 49.06977 | 3.35403 | 35912 ft | 451 kts | 314° |
| 2026-05-06 17:39 | 49.11436 | 3.28647 | 35907 ft | 451 kts | 314° |
| 2026-05-06 17:39 | 49.15887 | 3.21886 | 35906 ft | 451 kts | 314° |
| 2026-05-06 17:40 | 49.20303 | 3.15159 | 35909 ft | 450 kts | 314° |
| 2026-05-06 17:40 | 49.24728 | 3.08401 | 35904 ft | 449 kts | 314° |
| 2026-05-06 17:41 | 49.29145 | 3.01636 | 35906 ft | 448 kts | 314° |
| 2026-05-06 17:41 | 49.33560 | 2.94856 | 35911 ft | 448 kts | 314° |
| 2026-05-06 17:42 | 49.37960 | 2.88082 | 35909 ft | 447 kts | 314° |
| 2026-05-06 17:42 | 49.42314 | 2.81358 | 35912 ft | 446 kts | 314° |
| 2026-05-06 17:43 | 49.46679 | 2.74601 | 35908 ft | 445 kts | 314° |
| 2026-05-06 17:43 | 49.51039 | 2.67834 | 35912 ft | 445 kts | 314° |
| 2026-05-06 17:44 | 49.55389 | 2.61063 | 35918 ft | 444 kts | 313° |
| 2026-05-06 17:44 | 49.59728 | 2.54294 | 35918 ft | 443 kts | 314° |
| 2026-05-06 17:45 | 49.63851 | 2.47282 | 35900 ft | 432 kts | 309° |
| 2026-05-06 17:45 | 49.65749 | 2.43794 | 35908 ft | 417 kts | 309° |
| 2026-05-06 17:45 | 49.67572 | 2.40411 | 35904 ft | 403 kts | 308° |
| 2026-05-06 17:46 | 49.69311 | 2.37188 | 35911 ft | 389 kts | 309° |
| 2026-05-06 17:46 | 49.71027 | 2.34019 | 35912 ft | 380 kts | 309° |
| 2026-05-06 17:46 | 49.74471 | 2.27696 | 35947 ft | 389 kts | 309° |
| 2026-05-06 17:47 | 49.77404 | 2.22321 | 35952 ft | 397 kts | 309° |
| 2026-05-06 17:47 | 49.81628 | 2.14571 | 35947 ft | 407 kts | 309° |
| 2026-05-06 17:48 | 49.85270 | 2.07876 | 35944 ft | 409 kts | 309° |
| 2026-05-06 17:48 | 49.88916 | 2.01156 | 35921 ft | 404 kts | 309° |
| 2026-05-06 17:49 | 49.92489 | 1.94554 | 35935 ft | 396 kts | 309° |
| 2026-05-06 17:49 | 49.96028 | 1.87996 | 35938 ft | 395 kts | 309° |
| 2026-05-06 17:50 | 49.99546 | 1.81459 | 35945 ft | 394 kts | 309° |
| 2026-05-06 17:50 | 50.03068 | 1.74900 | 35949 ft | 395 kts | 309° |
| 2026-05-06 17:51 | 50.06566 | 1.68378 | 35940 ft | 396 kts | 310° |
| 2026-05-06 17:51 | 50.10567 | 1.62463 | 35948 ft | 398 kts | 318° |
| 2026-05-06 17:52 | 50.14791 | 1.56849 | 35947 ft | 400 kts | 319° |
| 2026-05-06 17:52 | 50.19019 | 1.51184 | 35905 ft | 399 kts | 318° |
| 2026-05-06 17:53 | 50.21106 | 1.48359 | 35649 ft | 393 kts | 318° |
| 2026-05-06 17:53 | 50.23172 | 1.45547 | 34935 ft | 399 kts | 318° |
| 2026-05-06 17:53 | 50.25298 | 1.42643 | 33778 ft | 417 kts | 319° |
| 2026-05-06 17:53 | 50.27511 | 1.39617 | 32934 ft | 423 kts | 319° |
| 2026-05-06 17:54 | 50.29718 | 1.36595 | 32508 ft | 418 kts | 318° |
| 2026-05-06 17:54 | 50.31884 | 1.33624 | 32099 ft | 414 kts | 318° |
| 2026-05-06 17:54 | 50.34017 | 1.30697 | 31768 ft | 408 kts | 318° |
| 2026-05-06 17:54 | 50.36144 | 1.27773 | 31372 ft | 404 kts | 318° |
| 2026-05-06 17:55 | 50.38256 | 1.24866 | 30854 ft | 404 kts | 317° |
| 2026-05-06 17:55 | 50.40355 | 1.21972 | 30404 ft | 402 kts | 317° |
| 2026-05-06 17:55 | 50.42450 | 1.19081 | 30000 ft | 399 kts | 317° |
| 2026-05-06 17:55 | 50.44529 | 1.16209 | 29498 ft | 396 kts | 317° |
| 2026-05-06 17:56 | 50.46591 | 1.13357 | 29040 ft | 393 kts | 317° |
| 2026-05-06 17:56 | 50.48634 | 1.10529 | 28571 ft | 390 kts | 317° |
| 2026-05-06 17:56 | 50.50663 | 1.07717 | 28105 ft | 387 kts | 317° |
| 2026-05-06 17:56 | 50.52636 | 1.04865 | 27649 ft | 384 kts | 313° |
| 2026-05-06 17:57 | 50.54449 | 1.01874 | 27219 ft | 381 kts | 311° |
| 2026-05-06 17:57 | 50.56226 | 0.98792 | 26785 ft | 378 kts | 311° |
| 2026-05-06 17:57 | 50.57983 | 0.95733 | 26355 ft | 376 kts | 311° |
| 2026-05-06 17:57 | 50.59742 | 0.92701 | 25913 ft | 374 kts | 311° |
| 2026-05-06 17:58 | 50.61499 | 0.89701 | 25509 ft | 371 kts | 311° |
| 2026-05-06 17:58 | 50.63249 | 0.86733 | 25111 ft | 369 kts | 311° |
| 2026-05-06 17:58 | 50.64404 | 0.84777 | 24844 ft | 367 kts | 311° |
| 2026-05-06 17:58 | 50.66140 | 0.81834 | 24454 ft | 365 kts | 312° |
| 2026-05-06 17:59 | 50.67860 | 0.78889 | 24070 ft | 363 kts | 310° |
| 2026-05-06 17:59 | 50.69472 | 0.75850 | 23682 ft | 361 kts | 308° |
| 2026-05-06 17:59 | 50.71025 | 0.72776 | 23223 ft | 354 kts | 307° |
| 2026-05-06 17:59 | 50.72545 | 0.69736 | 22545 ft | 351 kts | 307° |
| 2026-05-06 18:00 | 50.74063 | 0.66712 | 21834 ft | 350 kts | 307° |
| 2026-05-06 18:00 | 50.75568 | 0.63732 | 21200 ft | 346 kts | 308° |
| 2026-05-06 18:00 | 50.77075 | 0.60760 | 20374 ft | 347 kts | 308° |
| 2026-05-06 18:00 | 50.78620 | 0.57716 | 19104 ft | 362 kts | 308° |
| 2026-05-06 18:01 | 50.80200 | 0.54605 | 17895 ft | 372 kts | 308° |
| 2026-05-06 18:01 | 50.81837 | 0.51379 | 16557 ft | 379 kts | 308° |
| 2026-05-06 18:01 | 50.83495 | 0.48107 | 15305 ft | 384 kts | 308° |
| 2026-05-06 18:01 | 50.85155 | 0.44829 | 14509 ft | 376 kts | 308° |
| 2026-05-06 18:02 | 50.86773 | 0.41628 | 13839 ft | 367 kts | 308° |
| 2026-05-06 18:02 | 50.88342 | 0.38521 | 13176 ft | 357 kts | 308° |
| 2026-05-06 18:02 | 50.89868 | 0.35494 | 12513 ft | 348 kts | 309° |
| 2026-05-06 18:02 | 50.91364 | 0.32525 | 11858 ft | 340 kts | 309° |
| 2026-05-06 18:03 | 50.92824 | 0.29623 | 11218 ft | 333 kts | 309° |
| 2026-05-06 18:03 | 50.94250 | 0.26786 | 10766 ft | 323 kts | 309° |
| 2026-05-06 18:03 | 50.95772 | 0.24362 | 10627 ft | 302 kts | 327° |
| 2026-05-06 18:03 | 50.97629 | 0.23055 | 10517 ft | 284 kts | 346° |
| 2026-05-06 18:04 | 50.99540 | 0.22802 | 10401 ft | 270 kts | 4° |
| 2026-05-06 18:04 | 51.01320 | 0.23441 | 10299 ft | 256 kts | 20° |
| 2026-05-06 18:04 | 51.02837 | 0.24798 | 10069 ft | 250 kts | 36° |
| 2026-05-06 18:04 | 51.04028 | 0.26751 | 9677 ft | 251 kts | 53° |
| 2026-05-06 18:05 | 51.04821 | 0.29195 | 9281 ft | 248 kts | 70° |
| 2026-05-06 18:05 | 51.05133 | 0.31903 | 8712 ft | 253 kts | 87° |
| 2026-05-06 18:05 | 51.04995 | 0.34696 | 8342 ft | 252 kts | 99° |
| 2026-05-06 18:05 | 51.04446 | 0.37304 | 8020 ft | 249 kts | 118° |
| 2026-05-06 18:06 | 51.03476 | 0.39512 | 8004 ft | 239 kts | 126° |
| 2026-05-06 18:06 | 51.02457 | 0.41607 | 8003 ft | 244 kts | 127° |
| 2026-05-06 18:06 | 51.01392 | 0.43775 | 8006 ft | 253 kts | 127° |
| 2026-05-06 18:06 | 51.00305 | 0.45978 | 8000 ft | 255 kts | 127° |
| 2026-05-06 18:07 | 50.99317 | 0.47982 | 7987 ft | 254 kts | 127° |
| 2026-05-06 18:07 | 50.98184 | 0.50129 | 7972 ft | 253 kts | 138° |
| 2026-05-06 18:07 | 50.96745 | 0.51582 | 7989 ft | 252 kts | 156° |
| 2026-05-06 18:07 | 50.95093 | 0.52407 | 7974 ft | 251 kts | 171° |
| 2026-05-06 18:08 | 50.93875 | 0.52567 | 7974 ft | 250 kts | 182° |
| 2026-05-06 18:08 | 50.92137 | 0.52142 | 7979 ft | 248 kts | 199° |
| 2026-05-06 18:08 | 50.90583 | 0.51022 | 7986 ft | 247 kts | 208° |